EDDPEDDG

Guest
Details From EDDP - Leipzig-halle
To EDDG - Muenster Osnabrueck
Flight Number -
Tags Generated
Created
Modified
Stats Distance 174 nm / 322 km
Max Altitude 0 ft / 0 m
Waypoints 2
Social Downloads 0
Likes 0
Share VATSIM

Download

Looking for another format? Having issues loading an existing format? Contact us
Advertisement - Login to hide

Notes

Generated

Route

EDDP EDDG

ID Type Via Altitude Latitude Longitude Leg Dist Tot Dist Heading (true) Name
O EDDP APT - 0 ft / 0 m 51.41160˚ 12.20459˚ - 0 nm - -
O EDDG APT - 0 ft / 0 m 52.13151˚ 7.67006˚ 173 nm 173 nm 286° / 283° -

Altitude Profile

Advertisement - Login to hide

Weather


0- 5 10 15 20 25 30 35+ Temperature / ° C

Clouds and Precipitation
Forecast for 2018-06-20 00:00 UTC. Updated 10 minutes ago

Ground ~20,000 ft ~40,000 ft Winds

EDDP

Details ICAO EDDP (LEJ)
Name Leipzig-Halle
Region Germany - Civil
Timezone Europe/Berlin (UTC+2.0)
Stats Elevation 464 ft / 141 m (AMSL)
Location 51.422631° 12.236042°
Runways 2
Magnetic Variation 3.463° E

METAR

EDDP 192120Z 33003KT CAVOK 18/14 Q1023 NOSIG

Decode

TAF

TAF EDDP 191700Z 1918/2018 31004KT CAVOK BECMG 2006/2008 18005KT BECMG 2009/2011 24007KT

Decode

Departure Runways

ID Width Length Bearing (true) Bearing (mag) Surface Threshold Offset Overrun Length
08L 148 ft / 45 m 11,776 ft / 3,589 m 85.70° 82.24° Concrete 0 ft / 0 m 0 ft / 0 m
08R 197 ft / 60 m 11,777 ft / 3,590 m 85.68° 82.22° Concrete 0 ft / 0 m 0 ft / 0 m
26L 197 ft / 60 m 11,777 ft / 3,590 m 265.72° 262.26° Concrete 0 ft / 0 m 0 ft / 0 m
26R 148 ft / 45 m 11,776 ft / 3,589 m 265.74° 262.28° Concrete 0 ft / 0 m 0 ft / 0 m

EDDG

Details ICAO EDDG (FMO)
Name Muenster Osnabrueck
Region Germany - Civil
Timezone Europe/Berlin (UTC+2.0)
Stats Elevation 159 ft / 48 m (AMSL)
Location 52.134580° 7.684669°
Runways 1
Magnetic Variation 2.139° E

METAR

EDDG 192120Z 23002KT 9999 FEW020 BKN050 19/17 Q1024 NOSIG

Decode

TAF

TAF EDDG 191700Z 1918/2018 VRB02KT 9999 SCT025 BKN040 PROB30 TEMPO 2002/2005 4000 BR BECMG 2006/2009 23010KT

Decode

Destination Runways

ID Width Length Bearing (true) Bearing (mag) Surface Threshold Offset Overrun Length
07 148 ft / 45 m 7,303 ft / 2,226 m 70.93° 68.79° Asphalt 151 ft / 46 m 0 ft / 0 m
25 148 ft / 45 m 7,303 ft / 2,226 m 250.96° 248.82° Asphalt 292 ft / 89 m 0 ft / 0 m

Approach Navaids

Runway Type Ident Frequency Range Bearing (true) Bearing (mag) Slope Elevation
07 Localiser IMOE 111.90 MHz 18 nm / 33 km 70.93° 68.79° - 156 ft / 48 m (AMSL)
07 Glidescope IMOE 111.90 MHz 10 nm / 19 km 70.95° 68.81° 3.00° 156 ft / 48 m (AMSL)
25 Localiser IMOW 110.10 MHz 18 nm / 33 km 251.02° 248.88° - 159 ft / 48 m (AMSL)
25 Glidescope IMOW 110.10 MHz 10 nm / 19 km 250.95° 248.81° 3.00° 159 ft / 48 m (AMSL)

Popular Alternatives